sensor_id;sensor_type;location;lat;lon;timestamp;pressure;altitude;pressure_sealevel;temperature;humidity
61963;BME280;47927;42.646;23.096;2022-11-15T00:01:51;92625.47;;;6.09;56.48
61963;BME280;47927;42.646;23.096;2022-11-15T00:04:35;92616.28;;;6.00;56.65
61963;BME280;47927;42.646;23.096;2022-11-15T00:07:19;92631.63;;;6.05;57.08
61963;BME280;47927;42.646;23.096;2022-11-15T00:10:03;92577.59;;;5.70;56.65
61963;BME280;47927;42.646;23.096;2022-11-15T00:12:47;92605.84;;;5.75;56.76
61963;BME280;47927;42.646;23.096;2022-11-15T00:15:34;92626.66;;;5.79;56.58
61963;BME280;47927;42.646;23.096;2022-11-15T00:18:19;92595.66;;;5.58;57.17
61963;BME280;47927;42.646;23.096;2022-11-15T00:21:05;92593.81;;;5.58;57.01
61963;BME280;47927;42.646;23.096;2022-11-15T00:23:50;92617.38;;;5.78;56.97
61963;BME280;47927;42.646;23.096;2022-11-15T00:26:34;92616.81;;;5.72;56.17
61963;BME280;47927;42.646;23.096;2022-11-15T00:29:18;92628.84;;;5.68;56.65
61963;BME280;47927;42.646;23.096;2022-11-15T00:32:02;92557.38;;;5.18;56.52
61963;BME280;47927;42.646;23.096;2022-11-15T00:34:46;92614.69;;;5.53;57.35
61963;BME280;47927;42.646;23.096;2022-11-15T00:37:30;92590.25;;;5.30;57.77
61963;BME280;47927;42.646;23.096;2022-11-15T00:40:14;92589.81;;;5.28;57.89
61963;BME280;47927;42.646;23.096;2022-11-15T00:42:59;92617.91;;;5.29;58.66
61963;BME280;47927;42.646;23.096;2022-11-15T00:45:43;92600.88;;;5.28;59.35
61963;BME280;47927;42.646;23.096;2022-11-15T00:48:27;92613.06;;;5.48;59.11
61963;BME280;47927;42.646;23.096;2022-11-15T00:51:10;92597.31;;;5.41;59.13
61963;BME280;47927;42.646;23.096;2022-11-15T00:53:54;92573.97;;;5.29;58.11
61963;BME280;47927;42.646;23.096;2022-11-15T00:56:38;92600.13;;;5.48;56.81
61963;BME280;47927;42.646;23.096;2022-11-15T00:59:22;92602.03;;;5.39;56.58
61963;BME280;47927;42.646;23.096;2022-11-15T01:02:06;92602.28;;;5.25;58.13
61963;BME280;47927;42.646;23.096;2022-11-15T01:04:53;92589.47;;;5.08;59.59
61963;BME280;47927;42.646;23.096;2022-11-15T01:07:37;92589.34;;;5.05;60.98
61963;BME280;47927;42.646;23.096;2022-11-15T01:10:22;92602.00;;;4.97;61.11
61963;BME280;47927;42.646;23.096;2022-11-15T01:13:07;92555.00;;;4.83;59.47
61963;BME280;47927;42.646;23.096;2022-11-15T01:15:51;92580.66;;;4.88;61.78
61963;BME280;47927;42.646;23.096;2022-11-15T01:18:35;92591.38;;;5.20;61.13
61963;BME280;47927;42.646;23.096;2022-11-15T01:21:19;92606.94;;;5.32;57.75
61963;BME280;47927;42.646;23.096;2022-11-15T01:24:04;92605.88;;;5.33;57.55
61963;BME280;47927;42.646;23.096;2022-11-15T01:26:48;92527.81;;;4.86;57.68
61963;BME280;47927;42.646;23.096;2022-11-15T01:29:32;92588.16;;;5.23;58.21
61963;BME280;47927;42.646;23.096;2022-11-15T01:32:17;92603.47;;;5.28;57.67
61963;BME280;47927;42.646;23.096;2022-11-15T01:35:01;92598.88;;;5.13;59.51
61963;BME280;47927;42.646;23.096;2022-11-15T01:37:46;92534.59;;;4.69;59.02
61963;BME280;47927;42.646;23.096;2022-11-15T01:40:30;92599.75;;;5.17;56.89
61963;BME280;47927;42.646;23.096;2022-11-15T01:49:18;92592.38;;;5.07;58.22
61963;BME280;47927;42.646;23.096;2022-11-15T01:52:05;92597.84;;;5.05;57.40
61963;BME280;47927;42.646;23.096;2022-11-15T01:55:05;92548.41;;;4.73;57.83
61963;BME280;47927;42.646;23.096;2022-11-15T01:57:54;92600.75;;;5.03;59.63
61963;BME280;47927;42.646;23.096;2022-11-15T02:00:39;92593.88;;;5.08;59.07
61963;BME280;47927;42.646;23.096;2022-11-15T02:03:30;92542.38;;;4.61;57.97
61963;BME280;47927;42.646;23.096;2022-11-15T02:06:18;92598.47;;;5.02;56.97
61963;BME280;47927;42.646;23.096;2022-11-15T02:09:02;92548.31;;;4.61;57.10
61963;BME280;47927;42.646;23.096;2022-11-15T02:11:47;92550.75;;;4.57;58.09
61963;BME280;47927;42.646;23.096;2022-11-15T02:14:33;92598.53;;;4.93;58.34
61963;BME280;47927;42.646;23.096;2022-11-15T02:20:41;92580.00;;;4.70;58.01
61963;BME280;47927;42.646;23.096;2022-11-15T02:30:11;92539.13;;;4.43;59.86
61963;BME280;47927;42.646;23.096;2022-11-15T02:33:28;92580.41;;;4.72;58.75
61963;BME280;47927;42.646;23.096;2022-11-15T02:42:26;92570.94;;;4.85;61.63
61963;BME280;47927;42.646;23.096;2022-11-15T02:45:36;92557.53;;;4.92;59.61
61963;BME280;47927;42.646;23.096;2022-11-15T02:48:24;92472.56;;;4.36;58.87
61963;BME280;47927;42.646;23.096;2022-11-15T02:51:11;92567.47;;;5.02;58.85
61963;BME280;47927;42.646;23.096;2022-11-15T02:53:58;92550.34;;;4.76;58.58
61963;BME280;47927;42.646;23.096;2022-11-15T02:56:44;92574.34;;;4.98;58.01
61963;BME280;47927;42.646;23.096;2022-11-15T03:08:51;92517.69;;;4.21;61.44
61963;BME280;47927;42.646;23.096;2022-11-15T03:11:42;92562.31;;;4.51;61.57
61963;BME280;47927;42.646;23.096;2022-11-15T03:14:31;92540.88;;;4.30;62.29
61963;BME280;47927;42.646;23.096;2022-11-15T03:17:29;92566.78;;;4.33;63.44
61963;BME280;47927;42.646;23.096;2022-11-15T03:20:16;92563.22;;;4.55;62.72
61963;BME280;47927;42.646;23.096;2022-11-15T03:23:04;92552.78;;;4.73;61.15
61963;BME280;47927;42.646;23.096;2022-11-15T03:25:50;92551.16;;;4.68;61.63
61963;BME280;47927;42.646;23.096;2022-11-15T03:28:41;92469.59;;;4.25;61.23
61963;BME280;47927;42.646;23.096;2022-11-15T03:31:29;92541.34;;;4.83;61.60
61963;BME280;47927;42.646;23.096;2022-11-15T03:38:29;92494.88;;;4.62;61.72
61963;BME280;47927;42.646;23.096;2022-11-15T03:41:30;92496.31;;;4.92;60.70
61963;BME280;47927;42.646;23.096;2022-11-15T03:47:33;92497.00;;;5.01;60.17
61963;BME280;47927;42.646;23.096;2022-11-15T03:50:19;92527.25;;;5.01;61.31
61963;BME280;47927;42.646;23.096;2022-11-15T03:53:04;92490.66;;;4.78;61.74
61963;BME280;47927;42.646;23.096;2022-11-15T03:55:48;92529.25;;;5.16;61.31
61963;BME280;47927;42.646;23.096;2022-11-15T03:58:56;92523.56;;;5.23;60.90
61963;BME280;47927;42.646;23.096;2022-11-15T04:01:40;92517.44;;;5.15;60.96
61963;BME280;47927;42.646;23.096;2022-11-15T04:04:24;92521.81;;;5.36;60.46
61963;BME280;47927;42.646;23.096;2022-11-15T04:07:08;92519.81;;;4.99;61.35
61963;BME280;47927;42.646;23.096;2022-11-15T04:09:52;92513.66;;;5.13;60.82
61963;BME280;47927;42.646;23.096;2022-11-15T04:12:46;92516.53;;;5.11;60.79
61963;BME280;47927;42.646;23.096;2022-11-15T04:15:49;92506.78;;;4.96;62.04
61963;BME280;47927;42.646;23.096;2022-11-15T04:18:33;92509.63;;;4.82;62.94
61963;BME280;47927;42.646;23.096;2022-11-15T04:21:17;92516.16;;;5.00;62.27
61963;BME280;47927;42.646;23.096;2022-11-15T04:31:49;92464.91;;;4.90;59.19
61963;BME280;47927;42.646;23.096;2022-11-15T04:34:33;92473.22;;;4.75;61.51
61963;BME280;47927;42.646;23.096;2022-11-15T04:37:18;92520.56;;;5.21;60.85
61963;BME280;47927;42.646;23.096;2022-11-15T04:40:02;92495.03;;;5.19;57.80
61963;BME280;47927;42.646;23.096;2022-11-15T04:42:47;92476.81;;;4.83;58.41
61963;BME280;47927;42.646;23.096;2022-11-15T04:45:31;92514.91;;;5.07;58.82
61963;BME280;47927;42.646;23.096;2022-11-15T04:48:14;92476.81;;;4.83;58.99
61963;BME280;47927;42.646;23.096;2022-11-15T04:50:58;92512.06;;;4.99;59.25
61963;BME280;47927;42.646;23.096;2022-11-15T04:53:42;92493.22;;;4.78;59.59
61963;BME280;47927;42.646;23.096;2022-11-15T04:56:26;92506.34;;;4.94;59.59
61963;BME280;47927;42.646;23.096;2022-11-15T04:59:10;92499.72;;;4.84;58.87
61963;BME280;47927;42.646;23.096;2022-11-15T05:01:54;92512.28;;;4.94;58.87
61963;BME280;47927;42.646;23.096;2022-11-15T05:04:38;92519.69;;;4.96;59.17
61963;BME280;47927;42.646;23.096;2022-11-15T05:07:21;92518.63;;;4.97;59.53
61963;BME280;47927;42.646;23.096;2022-11-15T05:10:06;92484.75;;;4.77;61.37
61963;BME280;47927;42.646;23.096;2022-11-15T05:12:50;92515.34;;;5.09;59.52
61963;BME280;47927;42.646;23.096;2022-11-15T05:15:34;92514.63;;;4.99;60.08
61963;BME280;47927;42.646;23.096;2022-11-15T05:18:18;92470.38;;;4.68;58.41
61963;BME280;47927;42.646;23.096;2022-11-15T05:21:03;92508.59;;;4.95;58.95
61963;BME280;47927;42.646;23.096;2022-11-15T05:23:48;92505.72;;;4.97;57.81
61963;BME280;47927;42.646;23.096;2022-11-15T05:26:32;92485.66;;;4.73;58.76
61963;BME280;47927;42.646;23.096;2022-11-15T05:29:16;92512.56;;;4.93;58.11
61963;BME280;47927;42.646;23.096;2022-11-15T05:32:00;92471.19;;;4.39;60.40
61963;BME280;47927;42.646;23.096;2022-11-15T05:35:05;92516.28;;;4.83;60.92
61963;BME280;47927;42.646;23.096;2022-11-15T05:37:50;92520.00;;;4.94;59.95
61963;BME280;47927;42.646;23.096;2022-11-15T05:40:35;92521.47;;;5.04;58.72
61963;BME280;47927;42.646;23.096;2022-11-15T05:43:21;92520.38;;;5.05;58.29
61963;BME280;47927;42.646;23.096;2022-11-15T05:46:07;92515.78;;;5.11;57.50
61963;BME280;47927;42.646;23.096;2022-11-15T05:48:52;92519.88;;;5.12;58.00
61963;BME280;47927;42.646;23.096;2022-11-15T05:51:38;92503.94;;;6.22;57.89
61963;BME280;47927;42.646;23.096;2022-11-15T05:54:23;92503.59;;;8.32;52.64
61963;BME280;47927;42.646;23.096;2022-11-15T05:57:09;92521.91;;;10.49;48.44
61963;BME280;47927;42.646;23.096;2022-11-15T05:59:53;92523.13;;;12.10;44.18
61963;BME280;47927;42.646;23.096;2022-11-15T06:02:38;92512.69;;;13.13;41.08
61963;BME280;47927;42.646;23.096;2022-11-15T06:05:22;92520.47;;;13.86;37.71
61963;BME280;47927;42.646;23.096;2022-11-15T06:08:06;92506.31;;;14.27;37.87
61963;BME280;47927;42.646;23.096;2022-11-15T06:10:50;92514.94;;;14.81;39.35
61963;BME280;47927;42.646;23.096;2022-11-15T06:13:34;92519.81;;;16.10;37.22
61963;BME280;47927;42.646;23.096;2022-11-15T06:16:18;92515.69;;;17.06;34.82
61963;BME280;47927;42.646;23.096;2022-11-15T06:19:03;92515.97;;;17.53;33.77
61963;BME280;47927;42.646;23.096;2022-11-15T06:21:47;92514.13;;;18.11;33.17
61963;BME280;47927;42.646;23.096;2022-11-15T06:24:31;92518.66;;;18.88;31.46
61963;BME280;47927;42.646;23.096;2022-11-15T06:27:15;92505.13;;;19.30;31.21
61963;BME280;47927;42.646;23.096;2022-11-15T06:29:59;92523.34;;;20.04;30.74
61963;BME280;47927;42.646;23.096;2022-11-15T06:32:43;92519.84;;;20.27;30.37
61963;BME280;47927;42.646;23.096;2022-11-15T06:35:28;92516.84;;;20.94;28.08
61963;BME280;47927;42.646;23.096;2022-11-15T06:38:13;92515.19;;;21.00;28.26
61963;BME280;47927;42.646;23.096;2022-11-15T06:41:02;92523.47;;;21.48;26.78
61963;BME280;47927;42.646;23.096;2022-11-15T06:43:47;92504.44;;;21.66;26.54
61963;BME280;47927;42.646;23.096;2022-11-15T06:46:31;92514.81;;;21.60;26.52
61963;BME280;47927;42.646;23.096;2022-11-15T06:49:15;92516.44;;;21.83;26.57
61963;BME280;47927;42.646;23.096;2022-11-15T06:51:58;92515.19;;;21.88;26.92
61963;BME280;47927;42.646;23.096;2022-11-15T06:54:42;92517.88;;;22.13;26.39
61963;BME280;47927;42.646;23.096;2022-11-15T06:57:26;92512.53;;;23.03;24.95
61963;BME280;47927;42.646;23.096;2022-11-15T07:00:11;92508.59;;;23.07;24.71
61963;BME280;47927;42.646;23.096;2022-11-15T07:02:59;92500.88;;;23.22;24.37
61963;BME280;47927;42.646;23.096;2022-11-15T07:05:52;92512.84;;;23.39;24.61
61963;BME280;47927;42.646;23.096;2022-11-15T07:08:36;92511.81;;;23.81;25.06
61963;BME280;47927;42.646;23.096;2022-11-15T07:11:21;92509.75;;;23.85;25.02
61963;BME280;47927;42.646;23.096;2022-11-15T07:14:05;92513.97;;;24.26;24.44
61963;BME280;47927;42.646;23.096;2022-11-15T07:16:49;92487.78;;;24.65;24.18
61963;BME280;47927;42.646;23.096;2022-11-15T07:19:33;92508.00;;;24.94;23.46
61963;BME280;47927;42.646;23.096;2022-11-15T07:22:17;92503.28;;;25.16;22.96
61963;BME280;47927;42.646;23.096;2022-11-15T07:25:01;92507.63;;;25.23;23.05
61963;BME280;47927;42.646;23.096;2022-11-15T07:27:57;92511.47;;;25.59;22.59
61963;BME280;47927;42.646;23.096;2022-11-15T07:30:41;92502.69;;;25.86;22.62
61963;BME280;47927;42.646;23.096;2022-11-15T07:33:25;92509.09;;;25.33;23.80
61963;BME280;47927;42.646;23.096;2022-11-15T07:36:09;92510.84;;;25.91;21.98
61963;BME280;47927;42.646;23.096;2022-11-15T07:38:53;92504.44;;;26.07;21.66
61963;BME280;47927;42.646;23.096;2022-11-15T07:41:38;92517.38;;;25.72;22.67
61963;BME280;47927;42.646;23.096;2022-11-15T07:44:22;92517.56;;;24.01;24.16
61963;BME280;47927;42.646;23.096;2022-11-15T07:47:06;92507.75;;;23.89;24.64
61963;BME280;47927;42.646;23.096;2022-11-15T07:49:51;92496.13;;;24.05;23.74
61963;BME280;47927;42.646;23.096;2022-11-15T07:52:36;92510.69;;;23.47;24.65
61963;BME280;47927;42.646;23.096;2022-11-15T07:55:20;92510.72;;;24.00;24.25
61963;BME280;47927;42.646;23.096;2022-11-15T07:58:07;92512.13;;;24.86;23.49
61963;BME280;47927;42.646;23.096;2022-11-15T08:00:51;92512.34;;;25.28;23.25
61963;BME280;47927;42.646;23.096;2022-11-15T08:03:36;92513.66;;;25.79;22.54
61963;BME280;47927;42.646;23.096;2022-11-15T08:06:20;92500.44;;;25.94;22.19
61963;BME280;47927;42.646;23.096;2022-11-15T08:09:04;92481.06;;;25.65;22.24
61963;BME280;47927;42.646;23.096;2022-11-15T08:11:48;92494.66;;;24.85;22.78
61963;BME280;47927;42.646;23.096;2022-11-15T08:14:32;92497.41;;;24.63;23.28
61963;BME280;47927;42.646;23.096;2022-11-15T08:17:16;92470.31;;;23.83;24.71
61963;BME280;47927;42.646;23.096;2022-11-15T08:20:00;92492.50;;;24.21;24.03
61963;BME280;47927;42.646;23.096;2022-11-15T08:22:44;92467.91;;;22.97;24.82
61963;BME280;47927;42.646;23.096;2022-11-15T08:25:31;92489.72;;;23.49;24.83
61963;BME280;47927;42.646;23.096;2022-11-15T08:28:16;92457.91;;;23.90;24.25
61963;BME280;47927;42.646;23.096;2022-11-15T08:31:01;92488.75;;;23.56;24.48
61963;BME280;47927;42.646;23.096;2022-11-15T08:33:46;92489.94;;;23.77;24.59
61963;BME280;47927;42.646;23.096;2022-11-15T08:36:29;92484.44;;;24.02;24.05
61963;BME280;47927;42.646;23.096;2022-11-15T08:39:14;92480.88;;;24.27;23.89
61963;BME280;47927;42.646;23.096;2022-11-15T08:41:58;92464.63;;;24.03;24.02
61963;BME280;47927;42.646;23.096;2022-11-15T08:44:42;92473.56;;;24.59;23.80
61963;BME280;47927;42.646;23.096;2022-11-15T08:47:26;92475.94;;;24.17;24.01
61963;BME280;47927;42.646;23.096;2022-11-15T08:50:12;92478.16;;;24.59;23.97
61963;BME280;47927;42.646;23.096;2022-11-15T08:52:56;92473.22;;;24.07;23.93
61963;BME280;47927;42.646;23.096;2022-11-15T08:55:40;92471.97;;;24.21;24.42
61963;BME280;47927;42.646;23.096;2022-11-15T08:58:25;92415.94;;;24.34;23.30
61963;BME280;47927;42.646;23.096;2022-11-15T09:01:17;92466.03;;;24.58;23.37
61963;BME280;47927;42.646;23.096;2022-11-15T09:04:02;92435.56;;;24.77;23.16
61963;BME280;47927;42.646;23.096;2022-11-15T09:06:47;92460.81;;;23.82;24.07
61963;BME280;47927;42.646;23.096;2022-11-15T09:09:31;92449.59;;;23.78;24.54
61963;BME280;47927;42.646;23.096;2022-11-15T09:12:15;92442.41;;;23.97;24.19
61963;BME280;47927;42.646;23.096;2022-11-15T09:14:59;92441.81;;;24.24;23.79
61963;BME280;47927;42.646;23.096;2022-11-15T09:17:43;92405.09;;;23.79;23.76
61963;BME280;47927;42.646;23.096;2022-11-15T09:20:27;92406.25;;;22.20;25.74
61963;BME280;47927;42.646;23.096;2022-11-15T09:23:11;92370.72;;;22.52;25.33
61963;BME280;47927;42.646;23.096;2022-11-15T09:26:00;92384.97;;;23.47;24.19
61963;BME280;47927;42.646;23.096;2022-11-15T09:28:44;92418.94;;;23.96;24.47
61963;BME280;47927;42.646;23.096;2022-11-15T09:31:28;92359.88;;;23.48;24.01
61963;BME280;47927;42.646;23.096;2022-11-15T09:34:14;92413.06;;;23.04;24.89
61963;BME280;47927;42.646;23.096;2022-11-15T09:36:58;92371.97;;;23.17;24.69
61963;BME280;47927;42.646;23.096;2022-11-15T09:39:42;92402.06;;;23.36;24.84
61963;BME280;47927;42.646;23.096;2022-11-15T09:42:57;92396.03;;;22.66;25.86
61963;BME280;47927;42.646;23.096;2022-11-15T09:51:40;92390.91;;;22.50;25.88
61963;BME280;47927;42.646;23.096;2022-11-15T09:57:13;92348.44;;;23.38;25.06
61963;BME280;47927;42.646;23.096;2022-11-15T10:05:18;92382.97;;;23.91;24.91
61963;BME280;47927;42.646;23.096;2022-11-15T10:08:15;92374.22;;;23.50;25.62
61963;BME280;47927;42.646;23.096;2022-11-15T10:10:48;92371.00;;;22.67;26.67
61963;BME280;47927;42.646;23.096;2022-11-15T10:13:25;92370.81;;;22.96;26.82
61963;BME280;47927;42.646;23.096;2022-11-15T10:15:55;92371.94;;;22.95;25.92
61963;BME280;47927;42.646;23.096;2022-11-15T10:18:32;92365.97;;;23.04;26.17
61963;BME280;47927;42.646;23.096;2022-11-15T10:21:51;92360.66;;;23.26;25.98
61963;BME280;47927;42.646;23.096;2022-11-15T10:23:57;92349.38;;;23.44;25.52
61963;BME280;47927;42.646;23.096;2022-11-15T10:26:23;92354.09;;;23.49;25.14
61963;BME280;47927;42.646;23.096;2022-11-15T10:28:50;92313.19;;;23.15;25.47
61963;BME280;47927;42.646;23.096;2022-11-15T10:31:24;92355.19;;;22.86;26.18
61963;BME280;47927;42.646;23.096;2022-11-15T10:33:51;92329.13;;;22.71;26.07
61963;BME280;47927;42.646;23.096;2022-11-15T10:36:22;92336.13;;;23.00;25.84
61963;BME280;47927;42.646;23.096;2022-11-15T10:41:20;92298.81;;;22.12;26.59
61963;BME280;47927;42.646;23.096;2022-11-15T10:44:03;92306.94;;;21.96;27.63
61963;BME280;47927;42.646;23.096;2022-11-15T10:46:30;92319.41;;;22.08;27.61
61963;BME280;47927;42.646;23.096;2022-11-15T10:51:43;92301.97;;;21.59;27.86
61963;BME280;47927;42.646;23.096;2022-11-15T10:54:11;92309.91;;;21.47;28.67
61963;BME280;47927;42.646;23.096;2022-11-15T10:56:37;92304.47;;;21.25;28.93
61963;BME280;47927;42.646;23.096;2022-11-15T10:59:29;92303.25;;;21.42;28.52
61963;BME280;47927;42.646;23.096;2022-11-15T11:01:56;92294.91;;;21.02;29.08
61963;BME280;47927;42.646;23.096;2022-11-15T11:04:22;92243.91;;;20.43;29.75
61963;BME280;47927;42.646;23.096;2022-11-15T11:09:34;92290.97;;;20.93;29.42
61963;BME280;47927;42.646;23.096;2022-11-15T11:12:01;92226.69;;;20.22;30.11
61963;BME280;47927;42.646;23.096;2022-11-15T11:14:30;92260.31;;;20.09;30.98
61963;BME280;47927;42.646;23.096;2022-11-15T11:17:09;92287.91;;;20.53;30.22
61963;BME280;47927;42.646;23.096;2022-11-15T11:20:34;92274.88;;;20.30;30.68
61963;BME280;47927;42.646;23.096;2022-11-15T11:24:04;92272.13;;;20.49;30.32
61963;BME280;47927;42.646;23.096;2022-11-15T11:26:58;92272.63;;;19.33;32.11
61963;BME280;47927;42.646;23.096;2022-11-15T11:37:20;92250.97;;;20.33;30.94
61963;BME280;47927;42.646;23.096;2022-11-15T11:47:40;92237.44;;;20.02;31.18
61963;BME280;47927;42.646;23.096;2022-11-15T11:50:21;92222.69;;;20.17;30.91
61963;BME280;47927;42.646;23.096;2022-11-15T11:55:51;92188.69;;;20.16;30.79
61963;BME280;47927;42.646;23.096;2022-11-15T11:58:34;92204.47;;;20.19;30.75
61963;BME280;47927;42.646;23.096;2022-11-15T12:01:09;92215.81;;;20.20;30.92
61963;BME280;47927;42.646;23.096;2022-11-15T12:06:19;92203.03;;;20.31;30.66
61963;BME280;47927;42.646;23.096;2022-11-15T12:14:58;92198.38;;;18.95;32.56
61963;BME280;47927;42.646;23.096;2022-11-15T12:17:29;92184.53;;;19.40;31.32
61963;BME280;47927;42.646;23.096;2022-11-15T12:20:04;92189.16;;;19.52;31.81
61963;BME280;47927;42.646;23.096;2022-11-15T12:22:44;92138.56;;;19.38;31.42
61963;BME280;47927;42.646;23.096;2022-11-15T12:25:24;92166.53;;;19.51;31.39
61963;BME280;47927;42.646;23.096;2022-11-15T12:30:22;92187.00;;;19.47;31.80
61963;BME280;47927;42.646;23.096;2022-11-15T12:35:58;92179.56;;;19.42;31.93
61963;BME280;47927;42.646;23.096;2022-11-15T12:41:18;92171.16;;;19.47;31.78
61963;BME280;47927;42.646;23.096;2022-11-15T12:43:45;92153.56;;;18.55;32.67
61963;BME280;47927;42.646;23.096;2022-11-15T12:49:02;92155.13;;;18.53;32.87
61963;BME280;47927;42.646;23.096;2022-11-15T12:59:57;92151.13;;;17.88;33.94
61963;BME280;47927;42.646;23.096;2022-11-15T13:02:36;92149.16;;;18.12;33.61
61963;BME280;47927;42.646;23.096;2022-11-15T13:08:02;92147.03;;;18.43;33.05
61963;BME280;47927;42.646;23.096;2022-11-15T13:10:33;92144.56;;;18.53;32.87
61963;BME280;47927;42.646;23.096;2022-11-15T13:13:02;92139.63;;;18.75;32.38
61963;BME280;47927;42.646;23.096;2022-11-15T13:15:55;92141.16;;;18.72;32.39
61963;BME280;47927;42.646;23.096;2022-11-15T13:20:57;92139.56;;;18.58;32.59
61963;BME280;47927;42.646;23.096;2022-11-15T13:23:23;92112.72;;;18.27;33.09
61963;BME280;47927;42.646;23.096;2022-11-15T13:28:44;92138.09;;;18.01;33.06
61963;BME280;47927;42.646;23.096;2022-11-15T13:33:39;92089.13;;;17.60;33.47
61963;BME280;47927;42.646;23.096;2022-11-15T13:38:40;92106.72;;;18.07;33.47
61963;BME280;47927;42.646;23.096;2022-11-15T13:41:21;92134.00;;;17.76;34.63
61963;BME280;47927;42.646;23.096;2022-11-15T13:43:48;92137.28;;;18.04;34.23
61963;BME280;47927;42.646;23.096;2022-11-15T13:46:19;92133.53;;;18.21;33.82
61963;BME280;47927;42.646;23.096;2022-11-15T13:48:48;92133.47;;;18.25;33.44
61963;BME280;47927;42.646;23.096;2022-11-15T13:51:47;92133.06;;;18.27;33.72
61963;BME280;47927;42.646;23.096;2022-11-15T13:54:23;92131.72;;;17.35;34.93
61963;BME280;47927;42.646;23.096;2022-11-15T13:56:55;92140.13;;;17.50;35.12
61963;BME280;47927;42.646;23.096;2022-11-15T13:59:31;92140.66;;;17.85;34.49
61963;BME280;47927;42.646;23.096;2022-11-15T14:02:03;92132.97;;;17.94;34.23
61963;BME280;47927;42.646;23.096;2022-11-15T14:04:39;92128.16;;;17.89;34.35
61963;BME280;47927;42.646;23.096;2022-11-15T14:07:16;92123.22;;;17.91;34.21
61963;BME280;47927;42.646;23.096;2022-11-15T14:09:42;92124.03;;;17.88;34.26
61963;BME280;47927;42.646;23.096;2022-11-15T14:14:57;92128.53;;;17.67;34.63
61963;BME280;47927;42.646;23.096;2022-11-15T14:19:55;92127.19;;;17.36;34.46
61963;BME280;47927;42.646;23.096;2022-11-15T14:22:22;92091.56;;;17.07;34.43
61963;BME280;47927;42.646;23.096;2022-11-15T14:27:30;92120.03;;;17.13;34.77
61963;BME280;47927;42.646;23.096;2022-11-15T14:29:56;92120.94;;;16.79;35.26
61963;BME280;47927;42.646;23.096;2022-11-15T14:32:27;92124.84;;;16.67;34.73
61963;BME280;47927;42.646;23.096;2022-11-15T14:35:01;92119.84;;;16.76;34.22
61963;BME280;47927;42.646;23.096;2022-11-15T14:37:28;92122.81;;;16.78;33.97
61963;BME280;47927;42.646;23.096;2022-11-15T14:39:56;92125.84;;;16.77;34.27
61963;BME280;47927;42.646;23.096;2022-11-15T14:42:23;92124.41;;;16.72;35.00
61963;BME280;47927;42.646;23.096;2022-11-15T14:44:49;92119.22;;;16.65;34.92
61963;BME280;47927;42.646;23.096;2022-11-15T14:47:15;92115.66;;;16.52;35.21
61963;BME280;47927;42.646;23.096;2022-11-15T14:49:40;92121.72;;;16.49;35.37
61963;BME280;47927;42.646;23.096;2022-11-15T14:54:47;92105.78;;;16.02;35.97
61963;BME280;47927;42.646;23.096;2022-11-15T14:57:12;92123.81;;;16.00;36.48
61963;BME280;47927;42.646;23.096;2022-11-15T14:59:38;92115.69;;;15.90;36.78
61963;BME280;47927;42.646;23.096;2022-11-15T15:02:16;92116.50;;;15.84;37.69
61963;BME280;47927;42.646;23.096;2022-11-15T15:04:41;92121.13;;;15.72;37.82
61963;BME280;47927;42.646;23.096;2022-11-15T15:07:07;92070.00;;;15.09;38.80
61963;BME280;47927;42.646;23.096;2022-11-15T15:09:33;92061.19;;;14.88;39.10
61963;BME280;47927;42.646;23.096;2022-11-15T15:11:58;92111.53;;;15.17;39.32
61963;BME280;47927;42.646;23.096;2022-11-15T15:14:24;92114.94;;;15.11;39.40
61963;BME280;47927;42.646;23.096;2022-11-15T15:16:49;92087.25;;;14.61;40.24
61963;BME280;47927;42.646;23.096;2022-11-15T15:19:15;92105.59;;;14.61;40.60
61963;BME280;47927;42.646;23.096;2022-11-15T15:21:40;92111.56;;;14.62;40.80
61963;BME280;47927;42.646;23.096;2022-11-15T15:24:13;92044.44;;;14.16;41.00
61963;BME280;47927;42.646;23.096;2022-11-15T15:26:39;92110.50;;;14.48;41.08
61963;BME280;47927;42.646;23.096;2022-11-15T15:29:04;92091.19;;;14.28;41.40
61963;BME280;47927;42.646;23.096;2022-11-15T15:31:30;92109.50;;;14.31;41.83
61963;BME280;47927;42.646;23.096;2022-11-15T15:33:55;92111.38;;;14.27;41.79
61963;BME280;47927;42.646;23.096;2022-11-15T15:36:21;92112.53;;;14.23;41.65
61963;BME280;47927;42.646;23.096;2022-11-15T15:38:46;92112.63;;;14.05;42.51
61963;BME280;47927;42.646;23.096;2022-11-15T15:41:13;92114.88;;;13.99;42.37
61963;BME280;47927;42.646;23.096;2022-11-15T15:43:39;92125.03;;;13.83;42.94
61963;BME280;47927;42.646;23.096;2022-11-15T15:46:15;92093.69;;;13.65;42.78
61963;BME280;47927;42.646;23.096;2022-11-15T15:48:40;92082.91;;;13.52;43.19
61963;BME280;47927;42.646;23.096;2022-11-15T15:51:06;92100.06;;;13.64;43.12
61963;BME280;47927;42.646;23.096;2022-11-15T15:53:32;92116.50;;;13.72;43.19
61963;BME280;47927;42.646;23.096;2022-11-15T15:55:58;92116.16;;;13.62;43.27
61963;BME280;47927;42.646;23.096;2022-11-15T15:58:24;92100.13;;;13.46;43.40
61963;BME280;47927;42.646;23.096;2022-11-15T16:00:49;92107.63;;;13.37;43.85
61963;BME280;47927;42.646;23.096;2022-11-15T16:03:15;92066.19;;;12.78;44.26
61963;BME280;47927;42.646;23.096;2022-11-15T16:05:40;92110.25;;;12.65;45.37
61963;BME280;47927;42.646;23.096;2022-11-15T16:08:16;92091.84;;;11.97;47.12
61963;BME280;47927;42.646;23.096;2022-11-15T16:10:43;92115.38;;;12.04;47.11
61963;BME280;47927;42.646;23.096;2022-11-15T16:13:08;92117.13;;;11.79;47.60
61963;BME280;47927;42.646;23.096;2022-11-15T16:15:34;92078.63;;;11.54;47.73
61963;BME280;47927;42.646;23.096;2022-11-15T16:18:01;92116.88;;;12.05;46.92
61963;BME280;47927;42.646;23.096;2022-11-15T16:20:41;92109.06;;;12.16;46.65
61963;BME280;47927;42.646;23.096;2022-11-15T16:23:14;92113.53;;;12.12;46.60